Time;durP1;ratioP1;P1;durP2;ratioP2;P2;SDS_P1;SDS_P2;PMS_P1;PMS_P2;Temp;Humidity;BMP_temperature;BMP_pressure;BME280_temperature;BME280_humidity;BME280_pressure;Samples;Min_cycle;Max_cycle;Signal;HPM_P1;HPM_P2
2023/08/25 00:00:13;;;;;;;5.72;3.70;;;;;;;17.67;100.00;100172.97;700876;28;1441;-64
2023/08/25 00:00:34;;;;;;;6.68;3.90;;;;;;;17.67;100.00;100175.63;702422;28;1184;-63
2023/08/25 00:00:58;;;;;;;7.43;3.63;;;;;;;17.65;100.00;100172.19;701262;28;965;-62
2023/08/25 00:01:18;;;;;;;8.45;4.22;;;;;;;17.63;100.00;100171.38;699793;28;5038;-62
2023/08/25 00:01:38;;;;;;;8.47;4.27;;;;;;;17.62;100.00;100172.31;702852;28;907;-63
2023/08/25 00:01:59;;;;;;;6.03;3.60;;;;;;;17.62;100.00;100177.59;702147;28;1269;-62
2023/08/25 00:02:20;;;;;;;6.17;3.83;;;;;;;17.60;100.00;100166.25;701972;28;2366;-65
2023/08/25 00:02:41;;;;;;;5.70;3.70;;;;;;;17.62;100.00;100176.75;701372;28;1325;-63
2023/08/25 00:03:01;;;;;;;5.50;3.70;;;;;;;17.62;100.00;100176.75;698054;28;1983;-63
2023/08/25 00:03:22;;;;;;;5.80;3.50;;;;;;;17.61;100.00;100175.00;703412;28;879;-64
2023/08/25 00:03:42;;;;;;;6.88;3.60;;;;;;;17.61;100.00;100169.72;701448;28;922;-63
2023/08/25 00:04:03;;;;;;;7.35;3.88;;;;;;;17.60;100.00;100176.81;700197;28;4401;-63
2023/08/25 00:04:23;;;;;;;6.63;4.20;;;;;;;17.59;100.00;100169.78;701548;28;1381;-63
2023/08/25 00:04:44;;;;;;;5.97;3.58;;;;;;;17.56;100.00;100175.22;701242;28;793;-63
2023/08/25 00:05:05;;;;;;;5.73;3.70;;;;;;;17.55;100.00;100168.22;702128;28;2273;-63
2023/08/25 00:05:27;;;;;;;5.55;3.65;;;;;;;17.55;100.00;100172.66;702853;28;1377;-63
2023/08/25 00:05:51;;;;;;;6.30;3.97;;;;;;;17.55;100.00;100173.50;701289;28;907;-62
2023/08/25 00:06:12;;;;;;;5.45;3.67;;;;;;;17.55;100.00;100167.34;700406;28;1260;-62
2023/08/25 00:06:32;;;;;;;6.33;3.63;;;;;;;17.53;100.00;100168.28;701788;28;845;-63
2023/08/25 00:06:53;;;;;;;5.70;3.58;;;;;;;17.53;100.00;100170.91;698874;28;848;-63
2023/08/25 00:07:13;;;;;;;5.90;3.60;;;;;;;17.54;100.00;100166.47;698408;28;4982;-63
2023/08/25 00:07:33;;;;;;;6.30;3.80;;;;;;;17.53;100.00;100170.91;699782;28;892;-63
2023/08/25 00:07:54;;;;;;;6.00;4.03;;;;;;;17.53;100.00;100170.06;699136;28;1235;-62
2023/08/25 00:08:14;;;;;;;6.82;4.20;;;;;;;17.51;100.00;100166.63;699223;28;1538;-63
2023/08/25 00:08:36;;;;;;;6.87;3.87;;;;;;;17.51;100.00;100171.91;700600;28;793;-63
2023/08/25 00:08:56;;;;;;;6.90;3.70;;;;;;;17.49;100.00;100168.47;701504;28;990;-63
2023/08/25 00:09:17;;;;;;;6.50;3.80;;;;;;;17.47;100.00;100163.25;701937;28;2696;-62
2023/08/25 00:09:37;;;;;;;6.67;3.90;;;;;;;17.47;100.00;100163.25;702047;28;1021;-63
2023/08/25 00:09:58;;;;;;;6.30;3.80;;;;;;;17.46;100.00;100166.81;702202;28;936;-63
2023/08/25 00:10:18;;;;;;;6.80;3.47;;;;;;;17.45;100.00;100162.44;707563;27;4563;-62
2023/08/25 00:10:39;;;;;;;5.93;3.60;;;;;;;17.44;100.00;100166.00;708634;27;1135;-62
2023/08/25 00:10:59;;;;;;;6.30;3.87;;;;;;;17.45;100.00;100169.53;707096;27;906;-63
2023/08/25 00:11:20;;;;;;;6.83;3.77;;;;;;;17.43;100.00;100163.44;705480;27;1483;-63
2023/08/25 00:11:40;;;;;;;7.28;3.47;;;;;;;17.43;100.00;100172.22;707822;27;844;-63
2023/08/25 00:12:01;;;;;;;6.40;3.77;;;;;;;17.44;100.00;100165.16;705712;27;2312;-63
2023/08/25 00:12:22;;;;;;;6.03;3.70;;;;;;;17.43;100.00;100163.44;701662;28;1343;-62
2023/08/25 00:12:42;;;;;;;6.03;3.85;;;;;;;17.45;100.00;100164.25;700756;28;1350;-62
2023/08/25 00:13:03;;;;;;;6.67;3.80;;;;;;;17.45;100.00;100172.16;698645;28;4455;-62
2023/08/25 00:13:23;;;;;;;5.72;3.70;;;;;;;17.47;100.00;100160.63;700769;28;983;-62
2023/08/25 00:13:44;;;;;;;6.70;3.80;;;;;;;17.49;100.00;100163.19;700820;28;3074;-63
2023/08/25 00:14:05;;;;;;;5.10;3.90;;;;;;;17.48;100.00;100164.09;699979;28;2802;-62
2023/08/25 00:14:25;;;;;;;5.90;3.75;;;;;;;17.47;100.00;100165.03;704075;28;797;-62
2023/08/25 00:14:46;;;;;;;5.97;3.90;;;;;;;17.49;100.00;100158.75;706851;27;1168;-63
2023/08/25 00:15:07;;;;;;;5.93;3.90;;;;;;;17.50;100.00;100164.88;705899;27;976;-63
2023/08/25 00:15:27;;;;;;;5.80;3.60;;;;;;;17.49;100.00;100157.91;707990;27;948;-62
2023/08/25 00:15:49;;;;;;;6.10;3.60;;;;;;;17.57;100.00;100162.84;707353;27;1229;-63
2023/08/25 00:16:12;;;;;;;5.97;3.60;;;;;;;17.57;100.00;100150.50;704802;27;4397;-63
2023/08/25 00:16:33;;;;;;;6.78;3.88;;;;;;;17.54;100.00;100161.19;706086;27;851;-62
2023/08/25 00:16:53;;;;;;;6.45;3.78;;;;;;;17.57;100.00;100158.44;702153;28;932;-62
2023/08/25 00:17:14;;;;;;;6.33;3.67;;;;;;;17.58;100.00;100156.66;700903;28;2341;-63
2023/08/25 00:17:34;;;;;;;6.43;4.03;;;;;;;17.57;100.00;100155.81;702228;28;1252;-62
2023/08/25 00:17:55;;;;;;;8.23;3.80;;;;;;;17.57;100.00;100153.16;702354;28;1053;-63
2023/08/25 00:18:16;;;;;;;10.82;4.28;;;;;;;17.56;100.00;100154.06;701167;28;1742;-62
2023/08/25 00:18:36;;;;;;;6.63;3.75;;;;;;;17.56;100.00;100153.22;703117;28;888;-63
2023/08/25 00:18:57;;;;;;;6.70;4.10;;;;;;;17.55;100.00;100154.16;703183;28;1359;-63
2023/08/25 00:19:17;;;;;;;5.27;3.60;;;;;;;17.51;100.00;100156.03;700674;27;4355;-62
2023/08/25 00:19:38;;;;;;;5.95;3.60;;;;;;;17.51;100.00;100148.13;701829;28;1050;-63
2023/08/25 00:19:59;;;;;;;6.50;3.67;;;;;;;17.56;100.00;100151.44;703707;28;856;-63
2023/08/25 00:20:20;;;;;;;7.38;3.38;;;;;;;17.55;100.00;100155.00;700283;28;1495;-62
2023/08/25 00:20:41;;;;;;;6.00;3.65;;;;;;;17.52;100.00;100145.41;702677;28;1181;-63
2023/08/25 00:21:01;;;;;;;4.90;3.60;;;;;;;17.50;100.00;100151.69;700922;28;2445;-63
2023/08/25 00:21:22;;;;;;;5.40;3.88;;;;;;;17.49;100.00;100156.09;701816;28;1274;-63
2023/08/25 00:21:43;;;;;;;6.80;3.63;;;;;;;17.47;100.00;100150.03;702276;28;1548;-64
2023/08/25 00:22:04;;;;;;;6.53;3.47;;;;;;;17.46;100.00;100152.72;701181;28;4575;-62
2023/08/25 00:22:24;;;;;;;6.05;3.70;;;;;;;17.46;100.00;100158.00;701745;28;1068;-62
2023/08/25 00:22:45;;;;;;;5.88;3.70;;;;;;;17.45;100.00;100156.31;701623;28;821;-63
2023/08/25 00:23:05;;;;;;;5.87;3.67;;;;;;;17.45;100.00;100151.88;698600;28;2000;-62
2023/08/25 00:23:26;;;;;;;7.53;3.83;;;;;;;17.45;100.00;100151.03;702339;28;1326;-63
2023/08/25 00:23:47;;;;;;;5.77;4.07;;;;;;;17.48;100.00;100151.75;703390;28;937;-62
2023/08/25 00:24:07;;;;;;;5.47;3.83;;;;;;;17.50;100.00;100155.19;702255;28;1601;-62
2023/08/25 00:24:29;;;;;;;6.20;3.80;;;;;;;17.53;100.00;100149.78;700523;28;786;-63
2023/08/25 00:24:52;;;;;;;7.63;4.00;;;;;;;17.62;100.00;100148.53;701050;28;1065;-62
2023/08/25 00:25:13;;;;;;;6.57;3.83;;;;;;;17.64;100.00;100146.69;699506;28;4594;-62
2023/08/25 00:25:34;;;;;;;7.22;3.95;;;;;;;17.63;100.00;100149.41;700588;28;990;-62
2023/08/25 00:25:55;;;;;;;7.57;3.75;;;;;;;17.61;100.00;100152.09;700564;28;935;-62
2023/08/25 00:26:15;;;;;;;7.50;3.63;;;;;;;17.67;100.00;100146.53;701145;28;2088;-62
2023/08/25 00:26:39;;;;;;;7.73;3.73;;;;;;;17.64;100.00;100149.31;702451;28;1037;-62
2023/08/25 00:27:00;;;;;;;6.97;3.60;;;;;;;17.64;100.00;100151.09;702607;28;967;-64
2023/08/25 00:27:21;;;;;;;6.93;3.83;;;;;;;17.61;100.00;100141.53;701889;28;1758;-63
2023/08/25 00:27:41;;;;;;;7.43;4.00;;;;;;;17.59;100.00;100148.66;701744;28;1260;-63
2023/08/25 00:28:02;;;;;;;5.95;3.72;;;;;;;17.58;100.00;100144.28;701121;28;4317;-62
2023/08/25 00:28:22;;;;;;;7.53;3.78;;;;;;;17.57;100.00;100145.22;703138;28;1303;-62
2023/08/25 00:28:43;;;;;;;7.33;3.60;;;;;;;17.56;100.00;100143.50;702193;28;917;-63
2023/08/25 00:29:03;;;;;;;7.18;3.95;;;;;;;17.59;100.00;100143.38;701382;28;1909;-62
2023/08/25 00:29:24;;;;;;;7.33;4.00;;;;;;;17.60;100.00;100145.09;698108;28;1494;-62
2023/08/25 00:29:44;;;;;;;6.10;3.90;;;;;;;17.59;100.00;100140.72;700453;28;860;-63
2023/08/25 00:30:06;;;;;;;6.47;4.07;;;;;;;17.60;100.00;100142.44;700907;28;1714;-62
2023/08/25 00:30:27;;;;;;;6.15;3.80;;;;;;;17.62;100.00;100143.22;701092;28;813;-62
2023/08/25 00:30:49;;;;;;;5.97;3.95;;;;;;;17.62;100.00;100137.09;700310;28;970;-63
2023/08/25 00:31:09;;;;;;;5.63;3.60;;;;;;;17.60;100.00;100137.16;699113;28;4800;-63
2023/08/25 00:31:30;;;;;;;6.07;3.80;;;;;;;17.60;100.00;100134.53;702898;28;1187;-63
2023/08/25 00:31:51;;;;;;;7.57;3.90;;;;;;;17.58;100.00;100139.00;701546;28;851;-63
2023/08/25 00:32:12;;;;;;;7.00;3.72;;;;;;;17.57;100.00;100139.94;700030;28;1805;-62
2023/08/25 00:32:32;;;;;;;6.00;3.47;;;;;;;17.58;100.00;100139.00;699306;28;1147;-63
2023/08/25 00:32:53;;;;;;;6.65;3.60;;;;;;;17.57;100.00;100133.78;698390;28;1181;-62
2023/08/25 00:33:15;;;;;;;5.60;3.78;;;;;;;17.57;100.00;100133.78;700593;28;2321;-63
2023/08/25 00:33:36;;;;;;;7.32;3.78;;;;;;;17.57;100.00;100139.06;699976;28;1289;-63
2023/08/25 00:33:58;;;;;;;7.70;3.90;;;;;;;17.58;100.00;100136.34;697602;28;1303;-62
2023/08/25 00:34:18;;;;;;;5.40;3.63;;;;;;;17.57;100.00;100132.03;693857;28;6266;-63
2023/08/25 00:34:38;;;;;;;6.60;3.93;;;;;;;17.56;100.00;100132.94;695786;28;1351;-62
2023/08/25 00:34:59;;;;;;;6.78;3.38;;;;;;;17.56;100.00;100134.72;695633;28;952;-63
2023/08/25 00:35:19;;;;;;;6.57;3.50;;;;;;;17.56;100.00;100132.09;695139;28;1841;-61
2023/08/25 00:35:42;;;;;;;6.17;3.50;;;;;;;17.56;100.00;100132.94;698269;28;1647;-62
2023/08/25 00:36:03;;;;;;;6.35;3.67;;;;;;;17.60;100.00;100134.53;696191;28;1621;-63
2023/08/25 00:36:24;;;;;;;6.63;3.70;;;;;;;17.57;100.00;100126.72;697910;28;1162;-63
2023/08/25 00:36:45;;;;;;;5.30;3.70;;;;;;;17.55;100.00;100123.28;697715;28;1049;-62
2023/08/25 00:37:05;;;;;;;5.70;3.80;;;;;;;17.55;100.00;100125.91;695378;28;5312;-63
2023/08/25 00:37:25;;;;;;;5.80;3.80;;;;;;;17.55;100.00;100123.28;699229;28;928;-62
2023/08/25 00:37:46;;;;;;;5.90;3.67;;;;;;;17.58;100.00;100122.28;698469;28;1143;-64
2023/08/25 00:38:06;;;;;;;6.43;3.70;;;;;;;17.57;100.00;100118.81;697622;28;1092;-63
2023/08/25 00:38:28;;;;;;;6.40;3.65;;;;;;;17.56;100.00;100121.53;699934;28;1252;-62
2023/08/25 00:38:48;;;;;;;6.60;3.60;;;;;;;17.56;100.00;100125.00;701291;28;1255;-63
2023/08/25 00:39:09;;;;;;;6.70;3.58;;;;;;;17.56;100.00;100122.38;700093;28;1478;-65
2023/08/25 00:39:31;;;;;;;5.20;3.60;;;;;;;17.56;100.00;100122.38;700657;28;1926;-62
2023/08/25 00:39:51;;;;;;;5.35;3.47;;;;;;;17.53;100.00;100111.94;700180;28;951;-62
2023/08/25 00:40:12;;;;;;;5.90;3.70;;;;;;;17.52;100.00;100121.63;699662;28;4229;-65
2023/08/25 00:40:36;;;;;;;6.20;3.80;;;;;;;17.53;100.00;100125.16;702099;28;915;-65
2023/08/25 00:40:56;;;;;;;6.28;3.58;;;;;;;17.52;100.00;100121.63;699923;28;1275;-63
2023/08/25 00:41:17;;;;;;;7.75;3.50;;;;;;;17.53;100.00;100119.84;695168;28;2370;-63
2023/08/25 00:41:37;;;;;;;7.60;3.53;;;;;;;17.52;100.00;100118.13;699370;28;897;-62
2023/08/25 00:41:57;;;;;;;8.35;3.78;;;;;;;17.51;100.00;100119.03;699557;28;1432;-63
2023/08/25 00:42:19;;;;;;;7.68;3.80;;;;;;;17.50;100.00;100127.88;696342;28;1537;-63
2023/08/25 00:42:39;;;;;;;6.83;3.57;;;;;;;17.48;100.00;100120.03;697916;28;823;-63
2023/08/25 00:42:59;;;;;;;6.05;3.70;;;;;;;17.48;100.00;100125.31;695171;28;4451;-63
2023/08/25 00:43:22;;;;;;;6.13;3.40;;;;;;;17.48;100.00;100125.31;697202;28;1759;-63
2023/08/25 00:43:43;;;;;;;6.00;3.42;;;;;;;17.49;100.00;100118.28;697957;28;836;-62
2023/08/25 00:44:04;;;;;;;6.47;3.72;;;;;;;17.46;100.00;100118.38;697229;28;1485;-62
2023/08/25 00:44:24;;;;;;;8.25;3.72;;;;;;;17.46;100.00;100118.38;697959;28;1328;-63
2023/08/25 00:44:46;;;;;;;5.47;3.50;;;;;;;17.45;100.00;100117.53;696883;28;1584;-63
2023/08/25 00:45:07;;;;;;;5.57;3.60;;;;;;;17.46;100.00;100119.25;695852;28;1101;-63
2023/08/25 00:45:28;;;;;;;6.80;3.92;;;;;;;17.46;100.00;100121.91;697026;28;1305;-64
2023/08/25 00:45:49;;;;;;;8.07;3.97;;;;;;;17.46;100.00;100116.63;696451;28;3169;-62
2023/08/25 00:46:11;;;;;;;6.57;3.45;;;;;;;17.49;100.00;100120.91;697181;28;4426;-62
2023/08/25 00:46:31;;;;;;;4.82;3.22;;;;;;;17.49;100.00;100121.75;698878;28;1001;-63
2023/08/25 00:46:53;;;;;;;5.80;3.47;;;;;;;17.50;100.00;100117.31;699887;28;1325;-64
2023/08/25 00:47:13;;;;;;;5.88;3.50;;;;;;;17.48;100.00;100120.03;696682;28;994;-63
2023/08/25 00:47:36;;;;;;;7.90;3.60;;;;;;;17.48;100.00;100124.47;695910;28;1327;-63
2023/08/25 00:47:57;;;;;;;8.25;3.40;;;;;;;17.46;100.00;100116.63;695288;28;1478;-63
2023/08/25 00:48:17;;;;;;;6.32;3.40;;;;;;;17.44;100.00;100113.16;692858;28;2673;-62
2023/08/25 00:48:38;;;;;;;6.70;3.80;;;;;;;17.43;100.00;100115.88;692194;28;1444;-63
2023/08/25 00:48:59;;;;;;;7.22;4.00;;;;;;;17.42;100.00;100119.44;691068;28;4520;-63
2023/08/25 00:49:20;;;;;;;6.45;3.90;;;;;;;17.42;100.00;100114.13;695784;28;2354;-62
2023/08/25 00:49:41;;;;;;;6.07;3.85;;;;;;;17.42;100.00;100111.50;696832;28;1326;-64
2023/08/25 00:50:03;;;;;;;6.07;3.67;;;;;;;17.41;100.00;100120.38;698068;28;1341;-63
2023/08/25 00:50:24;;;;;;;6.00;3.67;;;;;;;17.41;100.00;100117.72;699746;28;1387;-63
2023/08/25 00:50:45;;;;;;;6.35;3.63;;;;;;;17.43;100.00;100113.22;694978;28;1418;-63
2023/08/25 00:51:07;;;;;;;6.47;3.80;;;;;;;17.42;100.00;100112.38;695637;28;1844;-63
2023/08/25 00:51:28;;;;;;;6.75;3.80;;;;;;;17.43;100.00;100107.94;698201;28;1242;-63
2023/08/25 00:51:53;;;;;;;5.63;3.87;;;;;;;17.40;100.00;100111.56;697349;28;879;-64
2023/08/25 00:52:16;;;;;;;6.53;3.88;;;;;;;17.41;100.00;100112.44;696692;28;4461;-63
2023/08/25 00:52:37;;;;;;;6.05;3.60;;;;;;;17.40;100.00;100116.00;697421;28;856;-62
2023/08/25 00:52:58;;;;;;;6.47;3.70;;;;;;;17.39;100.00;100109.00;695201;28;1973;-63
2023/08/25 00:53:20;;;;;;;5.60;3.90;;;;;;;17.37;100.00;100111.69;697420;28;2727;-64
2023/08/25 00:53:43;;;;;;;6.68;3.83;;;;;;;17.36;100.00;100108.22;697182;28;967;-64
2023/08/25 00:54:05;;;;;;;7.18;3.78;;;;;;;17.35;100.00;100110.91;693113;28;1725;-64
2023/08/25 00:54:28;;;;;;;6.10;3.80;;;;;;;17.34;100.00;100109.19;693930;28;1152;-63
2023/08/25 00:54:51;;;;;;;5.73;3.60;;;;;;;17.35;100.00;100111.78;695413;28;1294;-64
2023/08/25 00:55:12;;;;;;;5.97;3.50;;;;;;;17.35;100.00;100110.91;692376;28;4377;-63
2023/08/25 00:55:33;;;;;;;7.10;3.77;;;;;;;17.35;100.00;100117.06;697310;28;796;-63
2023/08/25 00:55:54;;;;;;;5.80;3.67;;;;;;;17.35;100.00;100118.84;698617;28;871;-63
2023/08/25 00:56:17;;;;;;;5.80;3.60;;;;;;;17.33;100.00;100110.13;694357;28;1720;-63
2023/08/25 00:56:37;;;;;;;6.13;3.70;;;;;;;17.32;100.00;100109.25;695409;28;1500;-63
2023/08/25 00:56:58;;;;;;;6.88;3.60;;;;;;;17.33;100.00;100118.03;698626;28;1004;-63
2023/08/25 00:57:19;;;;;;;5.50;3.60;;;;;;;17.33;100.00;100115.41;696384;28;5398;-63
2023/08/25 00:57:39;;;;;;;5.55;3.63;;;;;;;17.35;100.00;100114.41;698628;28;872;-63
2023/08/25 00:58:03;;;;;;;5.72;3.60;;;;;;;17.34;100.00;100115.31;696726;28;4476;-63
2023/08/25 00:58:23;;;;;;;7.20;3.63;;;;;;;17.35;100.00;100118.84;697673;28;2082;-62
2023/08/25 00:58:45;;;;;;;7.07;3.83;;;;;;;17.36;100.00;100117.91;696879;28;1255;-63
2023/08/25 00:59:05;;;;;;;6.63;3.53;;;;;;;17.34;100.00;100120.63;696777;28;2295;-63
2023/08/25 00:59:26;;;;;;;7.07;3.50;;;;;;;17.33;100.00;100121.56;699529;28;824;-63
2023/08/25 00:59:46;;;;;;;5.78;3.50;;;;;;;17.35;100.00;100119.69;703069;28;1170;-63
2023/08/25 01:00:11;;;;;;;5.30;3.47;;;;;;;17.38;100.00;100123.13;699727;28;2724;-64
2023/08/25 01:00:31;;;;;;;5.80;3.53;;;;;;;17.38;100.00;100123.13;702294;28;1516;-63
2023/08/25 01:00:53;;;;;;;5.97;3.70;;;;;;;17.36;100.00;100117.91;703294;28;808;-63
2023/08/25 01:01:17;;;;;;;5.70;3.47;;;;;;;17.34;100.00;100123.25;698946;28;4324;-64
2023/08/25 01:01:37;;;;;;;5.95;3.60;;;;;;;17.35;100.00;100122.34;700125;28;883;-63
2023/08/25 01:01:58;;;;;;;6.27;3.60;;;;;;;17.36;100.00;100121.41;698714;28;1135;-64
2023/08/25 01:02:19;;;;;;;5.90;3.67;;;;;;;17.35;100.00;100121.50;697593;28;1875;-63
2023/08/25 01:02:39;;;;;;;6.43;3.58;;;;;;;17.34;100.00;100120.63;701936;28;930;-63
2023/08/25 01:03:01;;;;;;;6.30;3.80;;;;;;;17.34;100.00;100117.97;701889;28;1917;-62
2023/08/25 01:03:22;;;;;;;5.60;4.00;;;;;;;17.33;100.00;100121.56;701327;28;1716;-64
2023/08/25 01:03:44;;;;;;;5.88;3.47;;;;;;;17.35;100.00;100124.97;703036;28;1025;-62
2023/08/25 01:04:04;;;;;;;6.63;3.50;;;;;;;17.34;100.00;100123.25;700157;28;4390;-64
2023/08/25 01:04:24;;;;;;;7.63;3.70;;;;;;;17.34;100.00;100120.63;699665;28;1187;-63
2023/08/25 01:04:45;;;;;;;6.68;3.88;;;;;;;17.33;100.00;100126.84;699951;28;864;-63
2023/08/25 01:05:07;;;;;;;7.03;3.70;;;;;;;17.34;100.00;100127.69;698412;28;2291;-63
2023/08/25 01:05:28;;;;;;;7.00;3.40;;;;;;;17.35;100.00;100124.13;696697;28;1026;-63
2023/08/25 01:05:48;;;;;;;6.28;3.60;;;;;;;17.35;100.00;100127.63;698243;28;753;-62
2023/08/25 01:06:09;;;;;;;7.40;4.00;;;;;;;17.36;100.00;100131.09;697511;28;2468;-62
2023/08/25 01:06:29;;;;;;;5.78;3.53;;;;;;;17.35;100.00;100127.63;701248;28;829;-63
2023/08/25 01:06:50;;;;;;;6.43;3.73;;;;;;;17.32;100.00;100129.50;697741;28;1404;-63
2023/08/25 01:07:10;;;;;;;5.85;3.72;;;;;;;17.31;100.00;100126.03;694290;28;4348;-63
2023/08/25 01:07:31;;;;;;;5.50;3.50;;;;;;;17.31;100.00;100128.66;697174;28;848;-63
2023/08/25 01:07:51;;;;;;;5.73;3.60;;;;;;;17.33;100.00;100126.84;699089;28;1118;-63
2023/08/25 01:08:12;;;;;;;7.00;3.90;;;;;;;17.34;100.00;100125.91;700545;28;988;-62
2023/08/25 01:08:32;;;;;;;5.50;3.67;;;;;;;17.35;100.00;100134.69;699169;28;1136;-64
2023/08/25 01:08:53;;;;;;;7.25;3.53;;;;;;;17.35;100.00;100134.69;699405;28;1009;-63
2023/08/25 01:09:15;;;;;;;5.93;3.57;;;;;;;17.34;100.00;100128.53;695823;28;1832;-63
2023/08/25 01:09:35;;;;;;;6.55;3.58;;;;;;;17.35;100.00;100124.13;693722;28;1222;-63
2023/08/25 01:09:56;;;;;;;6.40;3.70;;;;;;;17.33;100.00;100124.19;692686;28;3041;-63
2023/08/25 01:10:20;;;;;;;6.88;3.83;;;;;;;17.32;100.00;100127.75;688055;28;4504;-63
2023/08/25 01:10:53;;;;;;;6.45;4.00;;;;;;;17.31;100.00;100126.03;693284;28;1563;-63
2023/08/25 01:11:30;;;;;;;6.35;3.63;;;;;;;17.31;100.00;100123.38;696116;28;1542;-63
2023/08/25 01:12:08;;;;;;;6.72;3.70;;;;;;;17.31;100.00;100123.38;698514;28;1373;-63
2023/08/25 01:12:49;;;;;;;6.72;3.83;;;;;;;17.30;100.00;100126.09;704383;27;1337;-63
2023/08/25 01:13:19;;;;;;;5.75;3.55;;;;;;;17.29;100.00;100127.00;700954;28;4312;-63
2023/08/25 01:13:56;;;;;;;6.65;3.70;;;;;;;17.32;100.00;100133.03;701963;28;843;-64
2023/08/25 01:14:46;;;;;;;6.63;3.42;;;;;;;17.32;100.00;100126.88;701069;28;995;-63
2023/08/25 01:15:16;;;;;;;6.00;3.70;;;;;;;17.31;100.00;100133.97;699784;28;945;-63
2023/08/25 01:15:42;;;;;;;5.22;3.50;;;;;;;17.31;100.00;100130.47;701390;28;1234;-63
2023/08/25 01:16:07;;;;;;;5.10;3.67;;;;;;;17.31;100.00;100135.75;693823;28;4428;-63
2023/08/25 01:16:35;;;;;;;6.70;3.63;;;;;;;17.30;100.00;100132.22;697479;28;1010;-63
2023/08/25 01:17:09;;;;;;;7.28;4.20;;;;;;;17.29;100.00;100134.94;692433;28;1295;-63
2023/08/25 01:17:39;;;;;;;6.43;3.55;;;;;;;17.28;100.00;100130.56;697801;28;1227;-63
2023/08/25 01:18:23;;;;;;;5.93;3.65;;;;;;;17.26;100.00;100130.63;701537;28;917;-63
2023/08/25 01:18:44;;;;;;;6.63;3.60;;;;;;;17.26;100.00;100128.00;699433;28;924;-63
2023/08/25 01:19:19;;;;;;;6.10;3.53;;;;;;;17.24;100.00;100134.25;699752;28;4531;-63
2023/08/25 01:19:54;;;;;;;6.05;3.78;;;;;;;17.23;100.00;100138.69;698710;28;979;-63
2023/08/25 01:20:17;;;;;;;5.63;3.50;;;;;;;17.24;100.00;100132.50;696949;28;1672;-63
2023/08/25 01:20:39;;;;;;;5.78;3.50;;;;;;;17.25;100.00;100130.69;700157;28;927;-64
2023/08/25 01:21:03;;;;;;;6.43;3.83;;;;;;;17.26;100.00;100127.16;700753;28;1609;-64
2023/08/25 01:21:24;;;;;;;6.00;3.50;;;;;;;17.25;100.00;100125.41;698788;28;2131;-64
2023/08/25 01:21:51;;;;;;;6.80;3.40;;;;;;;17.25;100.00;100125.41;700286;28;876;-63
2023/08/25 01:22:24;;;;;;;6.40;3.90;;;;;;;17.25;100.00;100134.22;699073;28;4431;-64
2023/08/25 01:23:12;;;;;;;6.70;3.50;;;;;;;17.25;100.00;100131.59;700089;28;2064;-64
2023/08/25 01:23:44;;;;;;;5.97;3.50;;;;;;;17.24;100.00;100128.97;699986;28;983;-64
2023/08/25 01:24:21;;;;;;;5.85;3.60;;;;;;;17.23;100.00;100124.63;701472;28;1243;-64
2023/08/25 01:24:43;;;;;;;6.95;3.60;;;;;;;17.19;100.00;100123.88;703173;28;828;-64
2023/08/25 01:25:31;;;;;;;5.15;3.50;;;;;;;17.20;100.00;100122.97;702950;27;4413;-63
2023/08/25 01:25:53;;;;;;;6.38;3.47;;;;;;;17.18;100.00;100122.16;704841;27;2201;-63
2023/08/25 01:26:15;;;;;;;6.25;3.50;;;;;;;17.18;100.00;100122.16;703363;27;1998;-65
2023/08/25 01:26:37;;;;;;;7.30;3.60;;;;;;;17.18;100.00;100124.81;704736;27;946;-62
2023/08/25 01:26:58;;;;;;;5.65;3.40;;;;;;;17.18;100.00;100122.16;704454;28;844;-62
2023/08/25 01:27:20;;;;;;;5.13;3.33;;;;;;;17.18;100.00;100130.09;704719;27;1247;-62
2023/08/25 01:27:42;;;;;;;5.88;3.70;;;;;;;17.18;100.00;100123.03;702097;28;1393;-64
2023/08/25 01:28:04;;;;;;;6.60;3.58;;;;;;;17.17;100.00;100117.81;698922;28;4573;-62
2023/08/25 01:28:25;;;;;;;6.07;3.67;;;;;;;17.16;100.00;100119.59;700630;28;2400;-63
2023/08/25 01:28:50;;;;;;;6.47;3.80;;;;;;;17.16;100.00;100122.22;699344;28;852;-62
2023/08/25 01:29:11;;;;;;;5.25;3.33;;;;;;;17.14;100.00;100113.53;699318;28;2347;-65
2023/08/25 01:29:34;;;;;;;6.07;3.30;;;;;;;17.13;100.00;100113.59;698460;28;920;-62
2023/08/25 01:29:56;;;;;;;5.75;3.63;;;;;;;17.14;100.00;100125.84;702482;28;979;-63
2023/08/25 01:30:16;;;;;;;6.43;3.92;;;;;;;17.11;100.00;100121.56;701215;28;1994;-64
2023/08/25 01:30:39;;;;;;;6.97;4.00;;;;;;;17.10;100.00;100119.84;699481;28;1208;-62
2023/08/25 01:31:00;;;;;;;7.28;3.90;;;;;;;17.11;100.00;100115.41;696814;28;4420;-62
2023/08/25 01:31:21;;;;;;;6.43;3.63;;;;;;;17.11;100.00;100118.06;694589;28;1404;-62
2023/08/25 01:31:41;;;;;;;5.23;3.60;;;;;;;17.11;100.00;100121.56;697549;28;929;-63
2023/08/25 01:32:02;;;;;;;6.68;3.65;;;;;;;17.11;100.00;100120.69;694049;28;883;-65
2023/08/25 01:32:23;;;;;;;6.13;3.60;;;;;;;17.11;100.00;100128.63;693708;28;2486;-64
2023/08/25 01:32:43;;;;;;;6.78;3.58;;;;;;;17.10;100.00;100125.13;694382;28;1066;-64
2023/08/25 01:33:05;;;;;;;7.07;3.75;;;;;;;17.08;100.00;100121.69;698908;28;918;-65
2023/08/25 01:33:30;;;;;;;5.95;3.67;;;;;;;17.07;100.00;100119.09;699439;28;2017;-62
2023/08/25 01:33:53;;;;;;;6.53;3.45;;;;;;;17.08;100.00;100126.13;701896;28;935;-65
2023/08/25 01:34:15;;;;;;;6.55;3.95;;;;;;;17.08;100.00;100128.75;701429;28;4556;-62
2023/08/25 01:34:36;;;;;;;5.63;3.58;;;;;;;17.08;100.00;100126.13;698106;28;1523;-64
2023/08/25 01:35:00;;;;;;;5.97;3.60;;;;;;;17.07;100.00;100130.53;698434;28;1403;-64
2023/08/25 01:35:56;;;;;;;5.85;3.55;;;;;;;17.09;100.00;100127.84;694905;28;1713;-62
2023/08/25 01:36:33;;;;;;;6.13;3.67;;;;;;;17.06;100.00;100127.94;699477;28;2435;-62
2023/08/25 01:37:04;;;;;;;6.75;3.60;;;;;;;17.04;100.00;100125.38;701583;28;946;-64
2023/08/25 01:37:32;;;;;;;5.30;3.65;;;;;;;17.05;100.00;100126.25;699085;28;6185;-64
2023/08/25 01:38:10;;;;;;;5.20;3.58;;;;;;;17.01;100.00;100123.69;698516;28;1293;-62
2023/08/25 01:38:46;;;;;;;5.70;3.75;;;;;;;17.02;100.00;100122.78;695049;28;941;-63
2023/08/25 01:39:16;;;;;;;6.10;3.67;;;;;;;17.01;100.00;100123.69;694257;28;2331;-63
2023/08/25 01:39:40;;;;;;;7.60;3.70;;;;;;;17.05;100.00;100134.16;693213;28;968;-63
2023/08/25 01:40:07;;;;;;;6.10;3.55;;;;;;;17.04;100.00;100125.38;698058;28;4441;-63
2023/08/25 01:40:34;;;;;;;6.43;3.45;;;;;;;17.02;100.00;100128.06;700892;28;892;-63
2023/08/25 01:41:03;;;;;;;6.15;3.40;;;;;;;17.01;100.00;100121.06;697174;28;1066;-63
2023/08/25 01:41:38;;;;;;;5.70;3.75;;;;;;;16.99;100.00;100122.91;700704;28;1058;-63
2023/08/25 01:42:03;;;;;;;6.07;3.35;;;;;;;16.99;100.00;100125.56;701395;28;1237;-63
2023/08/25 01:42:26;;;;;;;5.90;3.40;;;;;;;17.00;100.00;100126.41;698825;28;1057;-64
2023/08/25 01:42:50;;;;;;;7.00;3.50;;;;;;;17.01;100.00;100122.84;698935;28;1254;-63
2023/08/25 01:43:15;;;;;;;6.55;3.50;;;;;;;16.99;100.00;100124.72;699078;28;4461;-63
2023/08/25 01:43:39;;;;;;;6.78;3.70;;;;;;;16.99;100.00;100122.91;695612;28;1612;-63
2023/08/25 01:44:03;;;;;;;5.65;3.58;;;;;;;17.03;100.00;100121.03;694852;28;1225;-62
2023/08/25 01:44:27;;;;;;;7.03;3.60;;;;;;;17.03;100.00;100121.03;691427;28;1799;-63
2023/08/25 01:44:52;;;;;;;7.35;3.95;;;;;;;17.02;100.00;100121.94;695207;28;1244;-63
2023/08/25 01:45:13;;;;;;;5.55;3.65;;;;;;;17.02;100.00;100119.31;696169;28;1459;-63
2023/08/25 01:45:34;;;;;;;5.97;3.35;;;;;;;17.01;100.00;100126.34;697876;28;928;-64
2023/08/25 01:45:56;;;;;;;5.10;3.30;;;;;;;17.00;100.00;100129.03;696231;28;1021;-63
2023/08/25 01:46:18;;;;;;;5.40;3.50;;;;;;;17.00;100.00;100129.03;695075;28;4338;-63
2023/08/25 01:46:43;;;;;;;5.15;3.30;;;;;;;16.98;100.00;100130.91;696210;28;848;-63
2023/08/25 01:47:06;;;;;;;4.93;3.30;;;;;;;16.98;100.00;100125.63;694662;28;1258;-63
2023/08/25 01:47:28;;;;;;;6.28;3.80;;;;;;;16.98;100.00;100129.13;691972;28;1757;-63
2023/08/25 01:47:52;;;;;;;5.68;3.78;;;;;;;16.98;100.00;100130.91;697292;28;1197;-64
2023/08/25 01:48:14;;;;;;;7.18;3.58;;;;;;;16.96;100.00;100130.97;698521;28;2064;-63